createdAt,value
2019-04-16T00:02:07.139Z,100378.73
2019-04-16T00:05:11.611Z,100367.02
2019-04-16T00:07:52.870Z,100364.03
2019-04-16T00:10:49.480Z,100354.52
2019-04-16T00:13:27.296Z,100349.51
2019-04-16T00:16:04.181Z,100351.19
2019-04-16T00:18:36.302Z,100357.15
2019-04-16T00:21:42.217Z,100356.03
2019-04-16T00:24:28.558Z,100356.23
2019-04-16T00:27:00.580Z,100363.86
2019-04-16T00:29:33.942Z,100373.53
2019-04-16T00:32:26.150Z,100375.41
2019-04-16T00:34:59.330Z,100373.71
2019-04-16T00:37:32.892Z,100373.33
2019-04-16T00:40:08.152Z,100379.05
2019-04-16T00:42:40.216Z,100374.83
2019-04-16T00:45:12.352Z,100375.38
2019-04-16T00:47:44.877Z,100379.33
2019-04-16T00:50:17.242Z,100381.55
2019-04-16T00:52:49.167Z,100378.38
2019-04-16T00:55:22.989Z,100383.52
2019-04-16T00:57:54.911Z,100377.38
2019-04-16T01:00:27.666Z,100376.01
2019-04-16T01:03:00.853Z,100373.94
2019-04-16T01:05:35.351Z,100370.31
2019-04-16T01:08:07.032Z,100366.68
2019-04-16T01:10:39.148Z,100357.73
2019-04-16T01:13:11.244Z,100355.87
2019-04-16T01:15:43.222Z,100352.59
2019-04-16T01:18:16.197Z,100348.97
2019-04-16T01:20:48.320Z,100339.53
2019-04-16T01:23:27.613Z,100337.30
2019-04-16T01:25:59.595Z,100338.53
2019-04-16T01:28:34.325Z,100337.87
2019-04-16T01:31:36.290Z,100333.03
2019-04-16T01:34:25.726Z,100329.97
2019-04-16T01:37:25.850Z,100336.02
2019-04-16T01:40:00.191Z,100328.22
2019-04-16T01:42:34.386Z,100329.33
2019-04-16T01:45:07.490Z,100320.45
2019-04-16T01:47:39.511Z,100320.72
2019-04-16T01:50:13.855Z,100323.87
2019-04-16T01:52:49.502Z,100314.13
2019-04-16T01:55:19.425Z,100312.19
2019-04-16T01:57:52.091Z,100313.96
2019-04-16T02:00:26.398Z,100303.05
2019-04-16T02:02:58.418Z,100284.11
2019-04-16T02:05:30.607Z,100277.39
2019-04-16T02:08:04.411Z,100292.34
2019-04-16T02:10:38.356Z,100297.02
2019-04-16T02:13:14.556Z,100298.33
2019-04-16T02:15:43.964Z,100300.94
2019-04-16T02:18:16.042Z,100304.67
2019-04-16T02:20:48.769Z,100301.15
2019-04-16T02:23:20.872Z,100299.59
2019-04-16T02:25:52.897Z,100301.36
2019-04-16T02:28:28.365Z,100303.05
2019-04-16T02:31:00.601Z,100302.52
2019-04-16T02:33:32.975Z,100302.31
2019-04-16T02:36:07.873Z,100302.48
2019-04-16T02:38:46.275Z,100285.73
2019-04-16T02:41:13.521Z,100290.73
2019-04-16T02:43:45.544Z,100294.28
2019-04-16T02:46:17.643Z,100290.45
2019-04-16T02:48:51.439Z,100297.52
2019-04-16T02:51:42.647Z,100291.40
2019-04-16T02:54:23.375Z,100293.80
2019-04-16T02:57:26.061Z,100298.19
2019-04-16T02:59:53.517Z,100294.04
2019-04-16T03:02:59.522Z,100298.02
2019-04-16T03:05:42.484Z,100290.76
2019-04-16T03:08:17.247Z,100292.65
2019-04-16T03:10:49.900Z,100293.38
2019-04-16T03:13:23.371Z,100293.33
2019-04-16T03:16:20.894Z,100288.42
2019-04-16T03:18:57.041Z,100291.13
2019-04-16T03:21:29.674Z,100282.92
2019-04-16T03:24:02.020Z,100273.72
2019-04-16T03:26:33.996Z,100276.42
2019-04-16T03:29:06.711Z,100274.28
2019-04-16T03:31:38.771Z,100273.82
2019-04-16T03:34:11.041Z,100277.27
2019-04-16T03:36:43.052Z,100280.45
2019-04-16T03:39:17.527Z,100272.91
2019-04-16T03:41:49.740Z,100281.36
2019-04-16T03:44:21.948Z,100281.41
2019-04-16T03:46:53.963Z,100281.73
2019-04-16T03:49:27.763Z,100286.66
2019-04-16T03:51:59.749Z,100276.01
2019-04-16T03:54:32.864Z,100276.70
2019-04-16T03:57:05.606Z,100275.69
2019-04-16T03:59:39.992Z,100269.41
2019-04-16T04:02:11.333Z,100272.73
2019-04-16T04:04:43.329Z,100268.69
2019-04-16T04:07:15.314Z,100267.83
2019-04-16T04:09:47.299Z,100264.77
2019-04-16T04:12:19.400Z,100266.59
2019-04-16T04:14:54.413Z,100262.98
2019-04-16T04:17:25.675Z,100259.85
2019-04-16T04:19:57.673Z,100261.22
2019-04-16T04:22:29.662Z,100253.20
2019-04-16T04:25:04.337Z,100252.12
2019-04-16T04:27:36.662Z,100251.39
2019-04-16T04:30:09.437Z,100249.97
2019-04-16T04:32:41.625Z,100254.27
2019-04-16T04:35:13.961Z,100247.47
2019-04-16T04:37:46.040Z,100247.37
2019-04-16T04:40:18.223Z,100250.09
2019-04-16T04:42:50.241Z,100246.08
2019-04-16T04:45:22.266Z,100240.53
2019-04-16T04:47:54.239Z,100237.02
2019-04-16T04:50:26.237Z,100232.91
2019-04-16T04:52:58.231Z,100229.27
2019-04-16T04:55:30.435Z,100233.23
2019-04-16T04:58:04.040Z,100241.04
2019-04-16T05:00:37.449Z,100241.26
2019-04-16T05:03:15.541Z,100244.25
2019-04-16T05:05:53.342Z,100239.69
2019-04-16T05:08:28.687Z,100234.47
2019-04-16T05:11:02.873Z,100238.25
2019-04-16T05:13:35.118Z,100237.41
2019-04-16T05:16:07.201Z,100233.02
2019-04-16T05:18:41.748Z,100226.52
2019-04-16T05:21:17.846Z,100215.93
2019-04-16T05:23:46.483Z,100226.73
2019-04-16T05:26:20.370Z,100223.73
2019-04-16T05:28:55.780Z,100222.50
2019-04-16T05:31:30.922Z,100218.14
2019-04-16T05:34:06.027Z,100222.55
2019-04-16T05:36:40.084Z,100222.09
2019-04-16T05:39:12.568Z,100227.92
2019-04-16T05:41:44.664Z,100224.77
2019-04-16T05:44:17.121Z,100228.81
2019-04-16T05:46:50.641Z,100238.59
2019-04-16T05:49:25.871Z,100226.88
2019-04-16T05:51:56.578Z,100234.03
2019-04-16T05:54:45.477Z,100238.08
2019-04-16T05:57:26.123Z,100238.98
2019-04-16T05:59:57.190Z,100247.98
2019-04-16T06:02:39.213Z,100243.86
2019-04-16T06:05:11.593Z,100244.94
2019-04-16T06:07:43.700Z,100244.03
2019-04-16T06:10:17.827Z,100236.92
2019-04-16T06:13:02.856Z,100236.46
2019-04-16T06:15:50.223Z,100245.16
2019-04-16T06:18:39.381Z,100240.52
2019-04-16T06:21:30.237Z,100239.55
2019-04-16T06:24:28.158Z,100239.15
2019-04-16T06:27:37.796Z,100236.16
2019-04-16T06:30:34.211Z,100224.91
2019-04-16T06:33:09.659Z,100226.11
2019-04-16T06:36:00.374Z,100228.94
2019-04-16T06:38:38.589Z,100222.16
2019-04-16T06:41:14.908Z,100223.48
2019-04-16T06:43:50.361Z,100221.20
2019-04-16T06:46:44.309Z,100226.83
2019-04-16T06:49:44.187Z,100221.02
2019-04-16T06:52:33.693Z,100210.34
2019-04-16T06:55:24.986Z,100215.45
2019-04-16T06:58:18.360Z,100216.64
2019-04-16T07:01:07.490Z,100221.86
2019-04-16T07:03:59.983Z,100215.73
2019-04-16T07:06:44.203Z,100218.11
2019-04-16T07:09:41.301Z,100214.25
2019-04-16T07:12:21.377Z,100209.78
2019-04-16T07:14:56.362Z,100205.92
2019-04-16T07:17:33.178Z,100212.53
2019-04-16T07:20:04.684Z,100220.22
2019-04-16T07:22:36.459Z,100211.50
2019-04-16T07:25:08.838Z,100217.09
2019-04-16T07:27:59.765Z,100219.91
2019-04-16T07:30:40.560Z,100219.24
2019-04-16T07:33:31.050Z,100217.97
2019-04-16T07:36:24.198Z,100217.16
2019-04-16T07:39:30.332Z,100218.56
2019-04-16T07:42:10.327Z,100212.77
2019-04-16T07:45:11.349Z,100211.58
2019-04-16T07:47:58.772Z,100200.17
2019-04-16T07:50:57.263Z,100207.03
2019-04-16T07:53:47.100Z,100208.88
2019-04-16T07:56:24.949Z,100201.37
2019-04-16T07:59:00.189Z,100200.63
2019-04-16T08:01:31.299Z,100203.98
2019-04-16T08:04:04.690Z,100205.16
2019-04-16T08:06:37.205Z,100200.13
2019-04-16T08:09:11.584Z,100208.73
2019-04-16T08:11:44.743Z,100200.23
2019-04-16T08:14:16.975Z,100194.50
2019-04-16T08:16:49.487Z,100188.32
2019-04-16T08:19:35.770Z,100171.27
2019-04-16T08:21:55.441Z,100165.84
2019-04-16T08:24:32.028Z,100158.66
2019-04-16T08:27:09.873Z,100152.06
2019-04-16T08:29:43.104Z,100159.37
2019-04-16T08:32:16.047Z,100167.80
2019-04-16T08:34:48.982Z,100162.08
2019-04-16T08:37:25.503Z,100167.78
2019-04-16T08:39:58.346Z,100172.87
2019-04-16T08:42:44.314Z,100168.53
2019-04-16T08:45:09.596Z,100168.17
2019-04-16T08:47:44.613Z,100164.06
2019-04-16T08:50:17.277Z,100157.17
2019-04-16T08:52:57.159Z,100146.17
2019-04-16T08:55:31.259Z,100146.17
2019-04-16T08:58:06.380Z,100154.49
2019-04-16T09:00:39.473Z,100149.77
2019-04-16T09:03:15.403Z,100149.77
2019-04-16T09:05:49.136Z,100147.16
2019-04-16T09:08:55.909Z,100152.66
2019-04-16T09:11:28.627Z,100145.15
2019-04-16T09:14:02.742Z,100136.84
2019-04-16T09:16:43.431Z,100132.14
2019-04-16T09:19:16.494Z,100131.10
2019-04-16T09:21:49.094Z,100131.08
2019-04-16T09:24:28.613Z,100135.64
2019-04-16T09:27:12.388Z,100128.91
2019-04-16T09:30:16.860Z,100135.30
2019-04-16T09:33:07.841Z,100136.19
2019-04-16T09:35:53.845Z,100135.04
2019-04-16T09:38:45.528Z,100140.45
2019-04-16T09:41:27.739Z,100134.17
2019-04-16T09:44:02.994Z,100130.34
2019-04-16T09:46:52.080Z,100125.36
2019-04-16T09:49:10.596Z,100131.41
2019-04-16T09:51:43.278Z,100125.70
2019-04-16T09:54:16.383Z,100113.28
2019-04-16T09:56:49.083Z,100111.04
2019-04-16T09:59:34.935Z,100102.38
2019-04-16T10:02:13.470Z,100093.72
2019-04-16T10:04:48.351Z,100099.16
2019-04-16T10:07:21.462Z,100090.53
2019-04-16T10:09:54.650Z,100086.71
2019-04-16T10:12:28.444Z,100082.23
2019-04-16T10:15:03.634Z,100067.70
2019-04-16T10:17:37.354Z,100067.40
2019-04-16T10:20:11.586Z,100073.19
2019-04-16T10:22:44.627Z,100076.60
2019-04-16T10:25:17.689Z,100076.50
2019-04-16T10:28:01.928Z,100075.85
2019-04-16T10:31:03.046Z,100079.83
2019-04-16T10:33:38.873Z,100065.18
2019-04-16T10:36:12.957Z,100056.45
2019-04-16T10:39:10.115Z,100057.83
2019-04-16T10:41:48.775Z,100053.79
2019-04-16T10:44:39.122Z,100045.83
2019-04-16T10:47:25.534Z,100042.98
2019-04-16T10:50:28.403Z,100035.97
2019-04-16T10:53:31.872Z,100035.97
2019-04-16T10:56:22.246Z,100024.68
2019-04-16T10:59:24.941Z,100024.68
2019-04-16T11:02:15.210Z,100029.30
2019-04-16T11:05:25.177Z,100013.97
2019-04-16T11:08:07.536Z,100010.51
2019-04-16T11:10:42.119Z,100006.30
2019-04-16T11:13:59.156Z,100000.84
2019-04-16T11:16:22.818Z,99989.63
2019-04-16T11:18:56.528Z,99993.20
2019-04-16T11:21:29.437Z,99991.73
2019-04-16T11:24:06.435Z,99991.56
2019-04-16T11:26:44.291Z,99982.81
2019-04-16T11:29:17.000Z,99989.08
2019-04-16T11:31:49.368Z,99984.38
2019-04-16T11:34:24.370Z,99980.89
2019-04-16T11:36:58.415Z,99980.33
2019-04-16T11:39:30.029Z,99960.92
2019-04-16T11:42:03.176Z,99960.92
2019-04-16T11:44:35.906Z,99962.58
2019-04-16T11:47:09.003Z,99954.45
2019-04-16T11:49:40.939Z,99940.50
2019-04-16T11:52:12.918Z,99935.18
2019-04-16T11:54:47.051Z,99933.34
2019-04-16T11:57:18.884Z,99933.80
2019-04-16T12:00:06.428Z,99928.11
2019-04-16T12:02:38.637Z,99928.70
2019-04-16T12:05:13.833Z,99917.55
2019-04-16T12:08:11.085Z,99921.86
2019-04-16T12:11:17.165Z,99916.04
2019-04-16T12:14:10.010Z,99904.73
2019-04-16T12:17:00.575Z,99908.55
2019-04-16T12:19:50.656Z,99908.34
2019-04-16T12:22:32.775Z,99897.55
2019-04-16T12:25:26.674Z,99898.89
2019-04-16T12:28:29.495Z,99897.27
2019-04-16T12:31:22.156Z,99884.52
2019-04-16T12:34:25.028Z,99878.80
2019-04-16T12:37:14.117Z,99872.52
2019-04-16T12:40:04.864Z,99857.38
2019-04-16T12:42:58.802Z,99852.28
2019-04-16T12:45:40.052Z,99847.14
2019-04-16T12:48:47.920Z,99846.30
2019-04-16T12:51:41.654Z,99849.08
2019-04-16T12:54:37.781Z,99841.30
2019-04-16T12:57:28.134Z,99838.86
2019-04-16T13:00:28.564Z,99836.41
2019-04-16T13:03:19.545Z,99831.09
2019-04-16T13:06:02.976Z,99828.64
2019-04-16T13:08:53.789Z,99813.83
2019-04-16T13:11:36.827Z,99817.84
2019-04-16T13:14:26.693Z,99817.63
2019-04-16T13:17:08.554Z,99811.24
2019-04-16T13:20:05.515Z,99814.53
2019-04-16T13:22:41.506Z,99809.69
2019-04-16T13:25:19.566Z,99808.75
2019-04-16T13:27:52.274Z,99801.72
2019-04-16T13:30:25.298Z,99804.66
2019-04-16T13:32:57.282Z,99794.69
2019-04-16T13:35:29.266Z,99786.14
2019-04-16T13:38:08.165Z,99785.20
2019-04-16T13:40:37.027Z,99785.65
2019-04-16T13:43:09.026Z,99779.33
2019-04-16T13:45:41.095Z,99768.75
2019-04-16T13:48:27.622Z,99762.83
2019-04-16T13:51:06.319Z,99748.19
2019-04-16T13:53:46.162Z,99752.84
2019-04-16T13:56:23.476Z,99746.50
2019-04-16T13:59:04.358Z,99738.26
2019-04-16T14:01:45.076Z,99733.26
2019-04-16T14:04:15.840Z,99738.09
2019-04-16T14:06:49.638Z,99727.67
2019-04-16T14:09:22.404Z,99719.48
2019-04-16T14:11:54.622Z,99715.81
2019-04-16T14:14:27.030Z,99709.48
2019-04-16T14:17:08.304Z,99693.75
2019-04-16T14:19:34.750Z,99697.20
2019-04-16T14:22:07.909Z,99693.44
2019-04-16T14:24:41.194Z,99681.63
2019-04-16T14:27:14.529Z,99676.70
2019-04-16T14:29:46.698Z,99677.45
2019-04-16T14:32:18.958Z,99675.52
2019-04-16T14:34:57.943Z,99673.98
2019-04-16T14:37:30.221Z,99666.18
2019-04-16T14:40:15.567Z,99658.11
2019-04-16T14:42:47.621Z,99655.86
2019-04-16T14:45:56.878Z,99650.28
2019-04-16T14:48:16.473Z,99652.56
2019-04-16T14:50:48.658Z,99651.03
2019-04-16T14:53:39.711Z,99649.72
2019-04-16T14:56:30.871Z,99643.89
2019-04-16T14:59:35.164Z,99628.52
2019-04-16T15:02:17.197Z,99630.63
2019-04-16T15:05:15.527Z,99624.89
2019-04-16T15:08:02.260Z,99618.42
2019-04-16T15:11:00.287Z,99615.73
2019-04-16T15:13:54.263Z,99614.74
2019-04-16T15:17:00.169Z,99614.91
2019-04-16T15:19:40.948Z,99603.72
2019-04-16T15:22:32.246Z,99589.25
2019-04-16T15:25:26.077Z,99586.12
2019-04-16T15:28:25.805Z,99584.02
2019-04-16T15:31:03.357Z,99583.18
2019-04-16T15:33:52.777Z,99574.84
2019-04-16T15:36:31.688Z,99576.08
2019-04-16T15:39:14.522Z,99567.75
2019-04-16T15:41:56.734Z,99563.64
2019-04-16T15:44:48.934Z,99563.83
2019-04-16T15:47:38.424Z,99554.33
2019-04-16T15:50:24.399Z,99549.47
2019-04-16T15:53:04.126Z,99545.25
2019-04-16T15:55:41.928Z,99530.05
2019-04-16T15:58:33.923Z,99535.08
2019-04-16T16:01:28.314Z,99531.77
2019-04-16T16:04:22.595Z,99529.25
2019-04-16T16:06:59.517Z,99527.08
2019-04-16T16:09:58.291Z,99517.61
2019-04-16T16:12:30.935Z,99513.64
2019-04-16T16:15:07.638Z,99511.38
2019-04-16T16:17:38.311Z,99508.39
2019-04-16T16:20:11.435Z,99511.64
2019-04-16T16:22:43.539Z,99504.94
2019-04-16T16:25:15.634Z,99505.51
2019-04-16T16:27:49.617Z,99496.41
2019-04-16T16:30:22.090Z,99499.93
2019-04-16T16:32:54.860Z,99507.20
2019-04-16T16:35:26.822Z,99494.47
2019-04-16T16:37:58.763Z,99500.52
2019-04-16T16:40:33.491Z,99494.81
2019-04-16T16:43:09.046Z,99486.90
2019-04-16T16:46:00.098Z,99488.97
2019-04-16T16:48:35.031Z,99492.52
2019-04-16T16:51:07.311Z,99493.05
2019-04-16T16:53:56.584Z,99498.68
2019-04-16T16:56:46.486Z,99502.72
2019-04-16T16:59:31.190Z,99507.48
2019-04-16T17:02:22.584Z,99510.19
2019-04-16T17:04:54.912Z,99509.26
2019-04-16T17:07:26.911Z,99495.20
2019-04-16T17:10:02.752Z,99491.98
2019-04-16T17:12:34.768Z,99488.84
2019-04-16T17:15:09.046Z,99494.52
2019-04-16T17:17:41.313Z,99495.05
2019-04-16T17:20:13.322Z,99481.94
2019-04-16T17:22:45.269Z,99488.22
2019-04-16T17:25:18.949Z,99490.19
2019-04-16T17:27:52.057Z,99489.85
2019-04-16T17:30:27.483Z,99485.42
2019-04-16T17:33:00.285Z,99483.75
2019-04-16T17:35:32.922Z,99487.48
2019-04-16T17:38:05.500Z,99488.30
2019-04-16T17:40:57.772Z,99490.80
2019-04-16T17:43:33.446Z,99490.41
2019-04-16T17:46:34.459Z,99494.40
2019-04-16T17:49:19.811Z,99491.31
2019-04-16T17:52:10.629Z,99494.29
2019-04-16T17:54:53.696Z,99489.13
2019-04-16T17:57:33.059Z,99487.55
2019-04-16T18:00:43.912Z,99489.09
2019-04-16T18:03:37.034Z,99493.94
2019-04-16T18:06:29.101Z,99499.50
2019-04-16T18:09:25.886Z,99490.68
2019-04-16T18:12:35.114Z,99493.77
2019-04-16T18:15:16.602Z,99494.98
2019-04-16T18:18:06.416Z,99491.86
2019-04-16T18:20:56.734Z,99495.22
2019-04-16T18:23:49.711Z,99504.53
2019-04-16T18:26:54.374Z,99503.07
2019-04-16T18:29:34.944Z,99493.20
2019-04-16T18:32:27.593Z,99487.45
2019-04-16T18:35:22.874Z,99485.33
2019-04-16T18:38:12.235Z,99477.52
2019-04-16T18:41:07.341Z,99475.87
2019-04-16T18:43:57.547Z,99472.23
2019-04-16T18:46:36.053Z,99475.24
2019-04-16T18:49:11.078Z,99483.80
2019-04-16T18:51:43.187Z,99486.27
2019-04-16T18:54:15.855Z,99480.19
2019-04-16T18:56:48.439Z,99474.23
2019-04-16T18:59:20.578Z,99467.28
2019-04-16T19:01:59.480Z,99468.63
2019-04-16T19:04:31.641Z,99469.75
2019-04-16T19:07:05.589Z,99470.24
2019-04-16T19:09:37.796Z,99462.80
2019-04-16T19:12:10.465Z,99466.92
2019-04-16T19:14:45.273Z,99466.89
2019-04-16T19:17:17.786Z,99473.11
2019-04-16T19:19:51.272Z,99461.88
2019-04-16T19:22:25.000Z,99472.45
2019-04-16T19:24:57.625Z,99487.62
2019-04-16T19:27:30.802Z,99481.69
2019-04-16T19:30:05.121Z,99481.81
2019-04-16T19:32:38.961Z,99491.88
2019-04-16T19:35:17.557Z,99495.14
2019-04-16T19:37:45.546Z,99484.83
2019-04-16T19:40:19.008Z,99484.31
2019-04-16T19:42:57.814Z,99492.03
2019-04-16T19:45:29.812Z,99491.17
2019-04-16T19:48:02.363Z,99496.09
2019-04-16T19:50:36.515Z,99502.38
2019-04-16T19:53:13.682Z,99509.31
2019-04-16T19:55:45.983Z,99497.10
2019-04-16T19:58:17.258Z,99490.28
2019-04-16T20:00:49.910Z,99499.47
2019-04-16T20:03:22.903Z,99507.41
2019-04-16T20:05:57.122Z,99512.23
2019-04-16T20:08:34.409Z,99501.95
2019-04-16T20:11:04.700Z,99504.70
2019-04-16T20:13:37.002Z,99495.92
2019-04-16T20:16:10.252Z,99499.00
2019-04-16T20:18:50.894Z,99502.85
2019-04-16T20:21:16.422Z,99486.17
2019-04-16T20:23:48.596Z,99487.56
2019-04-16T20:26:20.967Z,99487.05
2019-04-16T20:28:56.015Z,99491.53
2019-04-16T20:31:28.840Z,99494.95
2019-04-16T20:34:02.393Z,99505.27
2019-04-16T20:36:36.237Z,99510.67
2019-04-16T20:39:09.477Z,99513.73
2019-04-16T20:41:43.121Z,99506.08
2019-04-16T20:44:15.374Z,99506.70
2019-04-16T20:46:47.627Z,99500.65
2019-04-16T20:49:19.730Z,99494.16
2019-04-16T20:52:00.580Z,99489.89
2019-04-16T20:54:30.860Z,99479.75
2019-04-16T20:57:03.357Z,99467.95
2019-04-16T20:59:41.471Z,99463.29
2019-04-16T21:02:16.680Z,99445.13
2019-04-16T21:04:49.325Z,99469.28
2019-04-16T21:07:22.631Z,99461.86
2019-04-16T21:09:55.098Z,99442.22
2019-04-16T21:12:27.146Z,99464.45
2019-04-16T21:15:02.943Z,99452.92
2019-04-16T21:17:38.366Z,99446.45
2019-04-16T21:20:09.377Z,99442.30
2019-04-16T21:22:41.719Z,99441.67
2019-04-16T21:25:14.404Z,99428.23
2019-04-16T21:28:14.489Z,99423.94
2019-04-16T21:30:48.467Z,99435.16
2019-04-16T21:33:31.987Z,99438.09
2019-04-16T21:36:05.316Z,99429.73
2019-04-16T21:38:56.827Z,99425.72
2019-04-16T21:41:29.666Z,99420.21
2019-04-16T21:44:02.959Z,99412.91
2019-04-16T21:46:35.474Z,99408.63
2019-04-16T21:49:09.007Z,99410.30
2019-04-16T21:52:00.460Z,99401.81
2019-04-16T21:54:34.194Z,99398.16
2019-04-16T21:57:09.151Z,99400.06
2019-04-16T21:59:42.073Z,99391.28
2019-04-16T22:02:22.426Z,99396.48
2019-04-16T22:04:54.778Z,99395.81
2019-04-16T22:07:27.304Z,99394.69
2019-04-16T22:10:00.435Z,99396.16
2019-04-16T22:12:34.506Z,99398.41
2019-04-16T22:15:08.220Z,99401.69
2019-04-16T22:17:40.565Z,99396.53
2019-04-16T22:20:12.781Z,99396.58
2019-04-16T22:22:46.670Z,99396.00
2019-04-16T22:25:19.170Z,99393.92
2019-04-16T22:27:51.387Z,99394.61
2019-04-16T22:30:24.119Z,99392.63
2019-04-16T22:32:58.623Z,99386.95
2019-04-16T22:35:32.020Z,99380.46
2019-04-16T22:38:04.308Z,99369.57
2019-04-16T22:40:43.932Z,99374.09
2019-04-16T22:43:43.394Z,99376.52
2019-04-16T22:46:25.476Z,99364.72
2019-04-16T22:49:05.271Z,99359.55
2019-04-16T22:51:39.783Z,99368.19
2019-04-16T22:54:11.570Z,99362.02
2019-04-16T22:56:57.822Z,99371.09
2019-04-16T22:59:28.791Z,99371.30
2019-04-16T23:02:04.994Z,99369.98
2019-04-16T23:04:39.224Z,99370.67
2019-04-16T23:07:12.304Z,99367.77
2019-04-16T23:09:45.776Z,99374.95
2019-04-16T23:12:19.280Z,99367.84
2019-04-16T23:14:51.432Z,99364.38
2019-04-16T23:17:42.894Z,99363.27
2019-04-16T23:20:28.710Z,99355.91
2019-04-16T23:22:54.771Z,99344.86
2019-04-16T23:28:24.758Z,99340.97
2019-04-16T23:30:56.789Z,99343.13
2019-04-16T23:33:32.567Z,99339.88
2019-04-16T23:36:04.533Z,99340.67
2019-04-16T23:38:36.548Z,99334.16
2019-04-16T23:41:09.410Z,99338.37
2019-04-16T23:43:50.523Z,99337.26
2019-04-16T23:46:40.028Z,99332.72
2019-04-16T23:49:44.232Z,99333.00
2019-04-16T23:52:21.359Z,99328.44
2019-04-16T23:55:10.112Z,99331.69
2019-04-16T23:58:06.993Z,99322.23
